Time;durP1;ratioP1;P1;durP2;ratioP2;P2;SDS_P1;SDS_P2;PMS_P1;PMS_P2;Temp;Humidity;BMP_temperature;BMP_pressure;BME280_temperature;BME280_humidity;BME280_pressure;Samples;Min_cycle;Max_cycle;Signal;HPM_P1;HPM_P2
2021/01/31 00:00:30;;;;;;;27.08;16.67;;;-2.40;1.00;;;;;;5113290;28;20175;-66
2021/01/31 00:02:56;;;;;;;28.80;15.45;;;-2.30;1.00;;;;;;5113621;28;20183;-65
2021/01/31 00:05:24;;;;;;;21.83;14.73;;;-2.40;99.90;;;;;;5115055;28;20481;-65
2021/01/31 00:07:50;;;;;;;28.63;14.65;;;-2.40;99.90;;;;;;5117559;28;20195;-63
2021/01/31 00:10:19;;;;;;;23.65;13.00;;;-2.50;99.90;;;;;;5117519;28;20179;-63
2021/01/31 00:12:45;;;;;;;24.05;14.30;;;-2.40;99.90;;;;;;5117256;27;20176;-62
2021/01/31 00:15:15;;;;;;;24.30;15.53;;;-2.40;99.90;;;;;;5116227;28;20225;-62
2021/01/31 00:17:40;;;;;;;23.77;12.82;;;-2.60;99.90;;;;;;5114700;28;20687;-65
2021/01/31 00:20:07;;;;;;;26.27;16.30;;;-2.70;99.90;;;;;;5117299;28;20180;-65
2021/01/31 00:22:32;;;;;;;29.23;16.05;;;-2.80;99.90;;;;;;5116935;28;20185;-65
2021/01/31 00:24:58;;;;;;;22.90;14.20;;;-2.80;99.90;;;;;;5117044;28;20179;-63
2021/01/31 00:27:24;;;;;;;26.00;14.07;;;-2.70;99.90;;;;;;5115777;28;20204;-64
2021/01/31 00:29:51;;;;;;;22.60;12.40;;;-2.60;99.90;;;;;;5116998;28;20183;-63
2021/01/31 00:32:27;;;;;;;24.42;13.20;;;-2.60;99.90;;;;;;5116908;28;20420;-62
2021/01/31 00:34:54;;;;;;;21.75;12.93;;;-2.40;99.90;;;;;;5115606;28;20620;-65
2021/01/31 00:37:20;;;;;;;25.73;13.60;;;-2.40;99.90;;;;;;5115798;28;20211;-63
2021/01/31 00:39:47;;;;;;;27.83;15.20;;;-2.40;99.90;;;;;;5116838;27;20266;-63
2021/01/31 00:42:16;;;;;;;19.60;13.30;;;-2.30;99.90;;;;;;5116843;28;20183;-62
2021/01/31 00:44:46;;;;;;;22.48;13.63;;;-2.40;99.90;;;;;;5116660;28;20240;-65
2021/01/31 00:47:13;;;;;;;25.88;15.30;;;-2.60;99.90;;;;;;5116452;28;20171;-65
2021/01/31 00:49:38;;;;;;;45.92;20.77;;;-2.70;99.90;;;;;;5116635;28;20206;-63
2021/01/31 00:52:05;;;;;;;24.10;14.73;;;-2.70;99.90;;;;;;5116180;28;20191;-62
2021/01/31 00:54:31;;;;;;;30.65;18.95;;;-2.80;99.90;;;;;;5116103;28;20198;-62
2021/01/31 00:56:59;;;;;;;28.50;15.97;;;-2.80;99.90;;;;;;5116438;28;20228;-63
2021/01/31 00:59:25;;;;;;;26.38;14.68;;;-2.80;99.90;;;;;;5116306;28;20175;-63
2021/01/31 01:01:50;;;;;;;24.60;14.27;;;-2.80;99.90;;;;;;5116049;28;20509;-63
2021/01/31 01:04:16;;;;;;;23.80;14.50;;;-2.70;99.90;;;;;;5115841;28;20618;-63
2021/01/31 01:06:41;;;;;;;26.00;16.67;;;-2.60;99.90;;;;;;5116316;28;20531;-63
2021/01/31 01:09:07;;;;;;;35.17;19.80;;;-2.70;67.50;;;;;;5116016;28;20630;-61
2021/01/31 01:11:32;;;;;;;43.13;22.87;;;-2.80;24.40;;;;;;5115716;28;20179;-61
2021/01/31 01:13:58;;;;;;;35.20;21.77;;;-2.70;39.40;;;;;;5115596;28;20175;-63
2021/01/31 01:16:24;;;;;;;41.47;24.57;;;-2.60;96.30;;;;;;5115325;28;20237;-65
2021/01/31 01:18:49;;;;;;;22.83;13.70;;;-2.50;49.10;;;;;;5115547;28;20232;-65
2021/01/31 01:21:15;;;;;;;25.70;13.70;;;-2.50;1.00;;;;;;5114875;28;20176;-64
2021/01/31 01:23:41;;;;;;;21.20;14.68;;;-2.60;1.00;;;;;;5115478;28;20510;-65
2021/01/31 01:26:07;;;;;;;22.50;13.52;;;-2.70;1.00;;;;;;5114681;28;20519;-65
2021/01/31 01:28:33;;;;;;;22.67;12.60;;;-2.70;1.00;;;;;;5114470;28;20175;-64
2021/01/31 01:30:58;;;;;;;24.77;13.53;;;-2.70;1.00;;;;;;5115692;28;20801;-63
2021/01/31 01:33:25;;;;;;;22.07;12.93;;;-2.70;1.00;;;;;;5114527;28;20248;-63
2021/01/31 01:35:50;;;;;;;25.30;14.55;;;-2.70;1.00;;;;;;5115267;28;20202;-62
2021/01/31 01:38:16;;;;;;;25.63;14.20;;;-2.70;1.00;;;;;;5115182;28;20519;-64
2021/01/31 01:40:42;;;;;;;27.87;14.50;;;-2.90;1.00;;;;;;5115334;28;20255;-63
2021/01/31 01:43:16;;;;;;;24.33;14.17;;;-3.00;1.00;;;;;;5114995;28;20720;-63
2021/01/31 01:45:41;;;;;;;23.73;13.15;;;-2.80;1.00;;;;;;5115282;28;20171;-62
2021/01/31 01:48:15;;;;;;;25.67;12.53;;;-2.80;1.00;;;;;;5114139;28;20185;-62
2021/01/31 01:50:48;;;;;;;19.10;12.55;;;-2.80;1.00;;;;;;5115142;28;20179;-62
2021/01/31 01:53:15;;;;;;;27.00;14.85;;;-2.80;1.00;;;;;;5113882;28;20620;-64
2021/01/31 01:56:08;;;;;;;21.40;12.45;;;-2.80;1.00;;;;;;5115059;28;20190;-65
2021/01/31 01:58:33;;;;;;;24.05;13.00;;;-2.90;1.00;;;;;;5110034;28;20264;-64
2021/01/31 02:01:01;;;;;;;23.30;14.60;;;-2.90;1.00;;;;;;5115072;28;20222;-63
2021/01/31 02:03:31;;;;;;;25.05;13.82;;;-2.80;1.00;;;;;;5114769;28;20191;-62
2021/01/31 02:06:02;;;;;;;30.25;15.07;;;-3.00;1.00;;;;;;5114752;28;20188;-64
2021/01/31 02:08:27;;;;;;;25.17;14.07;;;-3.20;1.00;;;;;;5114853;28;20176;-64
2021/01/31 02:10:53;;;;;;;29.40;16.90;;;-3.00;1.00;;;;;;5114955;28;20179;-64
2021/01/31 02:13:20;;;;;;;22.55;13.52;;;-2.90;1.00;;;;;;5113458;28;20175;-64
2021/01/31 02:15:46;;;;;;;24.23;14.38;;;-3.10;1.00;;;;;;5114824;28;20508;-63
2021/01/31 02:18:34;;;;;;;22.08;13.02;;;-3.30;1.00;;;;;;5114385;28;20298;-62
2021/01/31 02:21:24;;;;;;;23.05;12.73;;;-3.40;1.00;;;;;;5114520;28;20194;-65
2021/01/31 02:23:55;;;;;;;28.42;12.40;;;-3.40;1.00;;;;;;5113554;28;20258;-64
2021/01/31 02:26:47;;;;;;;24.13;14.25;;;-3.20;1.00;;;;;;5114448;28;20178;-64
2021/01/31 02:29:40;;;;;;;32.30;15.75;;;-3.40;1.00;;;;;;5114089;28;20244;-64
2021/01/31 02:32:31;;;;;;;29.95;16.23;;;-3.40;1.00;;;;;;5114782;28;20229;-64
2021/01/31 02:35:04;;;;;;;33.47;17.85;;;-3.40;1.00;;;;;;5094044;28;20270;-64
2021/01/31 02:37:42;;;;;;;27.27;17.33;;;-3.40;1.00;;;;;;5114423;27;20541;-64
2021/01/31 02:40:24;;;;;;;24.48;14.27;;;-3.50;1.00;;;;;;5113194;28;20190;-64
2021/01/31 02:43:15;;;;;;;28.48;17.02;;;-3.80;99.90;;;;;;5114140;28;20479;-64
2021/01/31 02:45:46;;;;;;;29.60;15.38;;;-3.80;1.00;;;;;;5114162;28;20190;-64
2021/01/31 02:48:20;;;;;;;27.65;18.38;;;-3.80;1.00;;;;;;5114075;28;20172;-65
2021/01/31 02:50:52;;;;;;;32.35;16.77;;;-3.70;1.00;;;;;;5097009;28;20478;-64
2021/01/31 02:53:22;;;;;;;36.22;16.98;;;-3.80;1.00;;;;;;5113854;28;20203;-64
2021/01/31 02:56:04;;;;;;;25.60;15.00;;;-3.90;1.00;;;;;;5114226;28;20202;-62
2021/01/31 02:58:36;;;;;;;29.50;16.90;;;-3.80;1.00;;;;;;5113781;28;20210;-62
2021/01/31 03:01:20;;;;;;;19.83;12.95;;;-3.70;1.00;;;;;;5114195;28;20311;-62
2021/01/31 03:04:05;;;;;;;21.08;13.00;;;-3.70;1.00;;;;;;5113616;28;20202;-62
2021/01/31 03:06:34;;;;;;;63.00;26.27;;;-3.70;1.00;;;;;;5113944;28;20171;-64
2021/01/31 03:09:09;;;;;;;87.38;36.17;;;-3.70;1.00;;;;;;5114017;28;20612;-64
2021/01/31 03:11:44;;;;;;;60.03;29.30;;;-3.80;99.90;;;;;;5114232;28;20240;-64
2021/01/31 03:14:19;;;;;;;32.38;17.10;;;-3.90;99.90;;;;;;5113014;28;20183;-64
2021/01/31 03:16:54;;;;;;;32.33;16.65;;;-4.00;99.90;;;;;;5113778;28;20175;-65
2021/01/31 03:19:28;;;;;;;35.22;19.48;;;-4.00;99.90;;;;;;5112890;28;20213;-65
2021/01/31 03:21:58;;;;;;;27.05;15.10;;;-3.80;99.90;;;;;;5114138;28;20209;-65
2021/01/31 03:24:39;;;;;;;25.52;14.55;;;-3.80;16.20;;;;;;5112745;28;20627;-65
2021/01/31 03:27:18;;;;;;;25.95;14.45;;;-3.70;1.00;;;;;;5113991;28;20635;-65
2021/01/31 03:29:44;;;;;;;26.42;14.82;;;-3.90;1.00;;;;;;5112894;28;20190;-62
2021/01/31 03:32:17;;;;;;;28.00;14.10;;;-4.10;1.00;;;;;;5113735;28;20179;-62
2021/01/31 03:35:18;;;;;;;26.65;15.45;;;-4.10;99.90;;;;;;5113704;28;20528;-62
2021/01/31 03:37:52;;;;;;;26.80;13.40;;;-4.20;99.90;;;;;;5090331;28;20272;-62
2021/01/31 03:40:18;;;;;;;20.77;13.20;;;-4.20;99.90;;;;;;5113963;28;20211;-62
2021/01/31 03:42:44;;;;;;;28.60;16.13;;;-4.20;1.00;;;;;;5117850;27;20206;-62
2021/01/31 03:45:12;;;;;;;37.47;16.70;;;-4.20;1.00;;;;;;5117487;28;20620;-62
2021/01/31 03:48:06;;;;;;;27.85;17.35;;;-4.20;1.00;;;;;;5117394;28;20293;-62
2021/01/31 03:50:32;;;;;;;28.77;16.42;;;-4.20;90.60;;;;;;5101080;27;20199;-65
2021/01/31 03:52:58;;;;;;;22.00;13.83;;;-4.20;99.90;;;;;;5117668;28;20184;-65
2021/01/31 03:55:24;;;;;;;19.60;12.27;;;-4.10;99.90;;;;;;5117180;28;20440;-65
2021/01/31 03:57:55;;;;;;;23.40;13.53;;;-3.90;99.90;;;;;;5117318;28;20212;-65
2021/01/31 04:00:30;;;;;;;16.98;11.48;;;-3.70;99.90;;;;;;5117194;28;20501;-65
2021/01/31 04:03:12;;;;;;;20.92;11.98;;;-3.70;99.90;;;;;;5117067;28;20190;-64
2021/01/31 04:05:43;;;;;;;21.80;12.32;;;-3.90;1.00;;;;;;5117076;28;20175;-64
2021/01/31 04:08:11;;;;;;;17.88;11.57;;;-3.90;1.00;;;;;;5117287;28;20175;-64
2021/01/31 04:10:41;;;;;;;19.23;12.57;;;-4.00;1.00;;;;;;5117049;28;20615;-65
2021/01/31 04:13:09;;;;;;;17.60;11.40;;;-4.00;1.00;;;;;;5115853;28;20175;-65
2021/01/31 04:15:50;;;;;;;16.23;11.57;;;-4.10;1.00;;;;;;5115906;28;20284;-65
2021/01/31 04:18:17;;;;;;;19.25;10.50;;;-4.00;22.10;;;;;;5115856;28;20430;-65
2021/01/31 04:20:43;;;;;;;22.25;12.35;;;-4.10;13.20;;;;;;5115909;28;20553;-65
2021/01/31 04:23:08;;;;;;;21.40;12.17;;;-4.00;99.90;;;;;;5116400;28;20214;-64
2021/01/31 04:25:35;;;;;;;18.27;12.00;;;-3.90;99.90;;;;;;5115596;28;20179;-65
2021/01/31 04:28:09;;;;;;;24.40;13.30;;;-4.00;1.00;;;;;;5115747;28;20281;-65
2021/01/31 04:30:38;;;;;;;23.40;12.32;;;-4.10;30.20;;;;;;5116758;28;20228;-65
2021/01/31 04:33:03;;;;;;;18.77;11.50;;;-4.10;99.90;;;;;;5116484;28;20709;-65
2021/01/31 04:35:29;;;;;;;22.03;10.73;;;-4.10;99.90;;;;;;5116469;28;20176;-62
2021/01/31 04:37:54;;;;;;;23.50;10.40;;;-4.20;92.50;;;;;;5116449;28;20203;-62
2021/01/31 04:40:20;;;;;;;24.50;12.10;;;-4.30;6.60;;;;;;5116603;28;20171;-62
2021/01/31 04:42:46;;;;;;;17.87;10.53;;;-4.20;86.60;;;;;;5116292;28;20228;-62
2021/01/31 04:45:14;;;;;;;17.27;11.20;;;-4.10;46.30;;;;;;5116375;28;20176;-62
2021/01/31 04:48:03;;;;;;;19.23;9.90;;;-4.10;1.00;;;;;;5116365;28;20255;-62
2021/01/31 04:50:36;;;;;;;15.65;9.35;;;-4.10;1.00;;;;;;5116358;28;20183;-62
2021/01/31 04:53:30;;;;;;;17.92;10.90;;;-4.20;1.00;;;;;;5115138;28;20517;-62
2021/01/31 04:56:17;;;;;;;13.82;9.23;;;-4.10;1.00;;;;;;5115091;28;20215;-62
2021/01/31 04:58:49;;;;;;;20.90;10.13;;;-4.30;99.90;;;;;;5115903;28;20309;-62
2021/01/31 05:01:24;;;;;;;16.08;10.70;;;-4.10;1.00;;;;;;5114913;28;20620;-62
2021/01/31 05:04:00;;;;;;;18.10;10.70;;;-3.80;1.00;;;;;;5115706;28;20244;-62
2021/01/31 05:06:33;;;;;;;17.40;8.60;;;-3.80;1.00;;;;;;5115701;28;20167;-62
2021/01/31 05:09:00;;;;;;;19.95;11.55;;;-3.80;1.00;;;;;;5115139;28;20176;-63
2021/01/31 05:11:38;;;;;;;20.60;12.18;;;-3.90;99.90;;;;;;5115869;28;20258;-63
2021/01/31 05:14:19;;;;;;;23.65;12.98;;;-3.80;99.90;;;;;;5115547;28;20579;-63
2021/01/31 05:16:44;;;;;;;24.17;12.65;;;-3.90;99.90;;;;;;5115802;28;20210;-65
2021/01/31 05:19:14;;;;;;;21.70;10.77;;;-3.90;99.90;;;;;;5115619;28;20214;-65
2021/01/31 05:21:40;;;;;;;18.75;10.15;;;-3.90;99.90;;;;;;5114617;28;20481;-65
2021/01/31 05:24:14;;;;;;;17.33;9.53;;;-3.80;99.90;;;;;;5114611;28;20205;-65
2021/01/31 05:26:47;;;;;;;21.17;10.60;;;-3.90;99.90;;;;;;5114725;28;20603;-65
2021/01/31 05:29:19;;;;;;;21.40;11.13;;;-3.90;99.90;;;;;;5114381;28;20186;-65
2021/01/31 05:31:56;;;;;;;21.42;10.65;;;-3.90;99.90;;;;;;5114499;28;20190;-65
2021/01/31 05:34:41;;;;;;;19.30;10.98;;;-4.10;1.00;;;;;;5115245;28;20670;-65
2021/01/31 05:37:19;;;;;;;18.15;12.10;;;-4.30;99.90;;;;;;5115329;28;20562;-65
2021/01/31 05:40:09;;;;;;;22.77;11.63;;;-4.20;1.00;;;;;;5115308;28;20175;-65
2021/01/31 05:42:40;;;;;;;26.00;17.08;;;-4.10;1.00;;;;;;5115317;27;20639;-65
2021/01/31 05:45:31;;;;;;;21.17;13.70;;;-4.10;1.00;;;;;;5115018;28;20215;-65
2021/01/31 05:47:57;;;;;;;52.95;29.30;;;-4.20;99.90;;;;;;5115136;28;20176;-65
2021/01/31 05:50:37;;;;;;;46.67;26.97;;;-4.10;99.90;;;;;;5115128;28;20187;-65
2021/01/31 05:53:25;;;;;;;84.40;47.55;;;-4.20;99.90;;;;;;5114993;28;20751;-65
2021/01/31 05:55:51;;;;;;;54.08;29.35;;;-4.30;99.90;;;;;;5114791;28;20197;-63
2021/01/31 05:58:24;;;;;;;45.28;27.80;;;-4.20;1.00;;;;;;5114783;28;20195;-63
2021/01/31 06:01:10;;;;;;;40.20;23.95;;;-4.10;1.00;;;;;;5115188;28;20260;-64
2021/01/31 06:03:36;;;;;;;65.10;35.95;;;-4.10;1.00;;;;;;5114146;27;20222;-64
2021/01/31 06:06:20;;;;;;;54.15;28.95;;;-4.10;1.00;;;;;;5114826;28;20191;-64
2021/01/31 06:08:51;;;;;;;37.72;22.83;;;-4.20;99.90;;;;;;5114729;28;20175;-64
2021/01/31 06:11:35;;;;;;;85.10;48.15;;;-4.50;43.00;;;;;;5113707;28;20187;-64
2021/01/31 06:14:05;;;;;;;42.42;26.25;;;-4.40;99.90;;;;;;5114919;28;20186;-64
2021/01/31 06:16:33;;;;;;;43.70;24.30;;;-4.30;99.90;;;;;;5113858;28;20266;-63
2021/01/31 06:19:04;;;;;;;43.95;24.42;;;-4.10;72.10;;;;;;5114586;28;20211;-63
2021/01/31 06:21:46;;;;;;;46.40;25.80;;;-4.10;1.00;;;;;;5115056;28;20167;-64
2021/01/31 06:24:48;;;;;;;53.80;27.27;;;-4.50;1.00;;;;;;5114432;28;20262;-64
2021/01/31 06:27:32;;;;;;;73.50;34.20;;;-4.70;1.00;;;;;;5114616;28;20186;-64
2021/01/31 06:30:27;;;;;;;60.17;34.72;;;-4.80;1.00;;;;;;5113764;28;20194;-64
2021/01/31 06:32:53;;;;;;;73.30;40.33;;;-4.70;1.00;;;;;;5114599;28;20507;-65
2021/01/31 06:35:23;;;;;;;30.20;16.77;;;-5.10;99.90;;;;;;5114208;28;20176;-65
2021/01/31 06:38:01;;;;;;;23.55;12.90;;;-4.90;1.00;;;;;;5114431;28;20244;-66
2021/01/31 06:40:30;;;;;;;26.90;13.60;;;-5.10;1.00;;;;;;5114538;28;20250;-67
2021/01/31 06:43:00;;;;;;;21.20;11.50;;;-5.10;1.00;;;;;;5114075;28;20516;-64
2021/01/31 06:46:07;;;;;;;20.90;11.25;;;-5.30;1.00;;;;;;5113920;28;20186;-64
2021/01/31 06:48:42;;;;;;;21.90;12.00;;;-5.30;99.90;;;;;;5071682;28;20267;-64
2021/01/31 06:51:36;;;;;;;19.25;11.23;;;-5.10;99.90;;;;;;5071693;28;20172;-64
2021/01/31 06:54:24;;;;;;;19.58;10.57;;;-5.10;99.90;;;;;;5101604;28;20635;-64
2021/01/31 06:57:13;;;;;;;23.05;12.45;;;-5.00;1.00;;;;;;5113944;28;20194;-64
2021/01/31 07:00:09;;;;;;;22.02;12.48;;;-6.00;1.00;;;;;;5108164;28;20534;-64
2021/01/31 07:02:57;;;;;;;24.02;12.10;;;-6.10;99.90;;;;;;5113887;28;20194;-64
2021/01/31 07:05:32;;;;;;;28.23;14.20;;;-6.00;3.70;;;;;;5113743;28;20183;-64
2021/01/31 07:08:06;;;;;;;28.50;12.30;;;-5.60;99.90;;;;;;5113791;28;20171;-64
2021/01/31 07:10:46;;;;;;;26.00;13.35;;;-5.20;1.00;;;;;;5113677;28;20225;-64
2021/01/31 07:13:34;;;;;;;22.60;11.50;;;-4.90;1.00;;;;;;5113617;28;20181;-65
2021/01/31 07:16:12;;;;;;;16.88;9.75;;;-4.60;99.90;;;;;;5116353;28;20512;-65
2021/01/31 07:18:58;;;;;;;23.10;10.88;;;-4.70;12.30;;;;;;5117929;28;20531;-65
2021/01/31 07:21:35;;;;;;;31.65;16.75;;;-4.50;99.60;;;;;;5117017;28;20187;-65
2021/01/31 07:24:07;;;;;;;33.17;16.83;;;-4.30;99.90;;;;;;5116841;28;20185;-65
2021/01/31 07:26:44;;;;;;;24.45;9.85;;;-3.90;99.90;;;;;;5116897;28;20516;-64
2021/01/31 07:29:18;;;;;;;14.50;9.32;;;-3.70;52.10;;;;;;5117873;28;20179;-65
2021/01/31 07:31:49;;;;;;;24.63;11.77;;;-3.50;1.00;;;;;;5118327;28;20203;-65
2021/01/31 07:34:21;;;;;;;20.77;10.73;;;-3.30;99.90;;;;;;5116478;28;20193;-65
2021/01/31 07:37:14;;;;;;;18.27;10.07;;;-3.40;17.30;;;;;;5117937;28;20171;-65
2021/01/31 07:39:56;;;;;;;17.25;9.73;;;-3.30;1.00;;;;;;5117728;28;20189;-65
2021/01/31 07:42:22;;;;;;;18.40;10.35;;;-3.20;99.90;;;;;;5117929;28;20167;-63
2021/01/31 07:44:53;;;;;;;13.40;8.85;;;-3.20;99.90;;;;;;5116099;28;20185;-63
2021/01/31 07:47:23;;;;;;;24.25;11.57;;;-2.90;1.00;;;;;;5117196;28;20248;-63
2021/01/31 07:49:54;;;;;;;21.85;10.05;;;-2.60;1.00;;;;;;5117373;27;20198;-63
2021/01/31 07:52:20;;;;;;;16.90;9.60;;;-2.50;1.00;;;;;;5116433;28;20279;-63
2021/01/31 07:54:46;;;;;;;46.08;22.52;;;-2.20;1.00;;;;;;5117258;28;20633;-65
2021/01/31 07:57:37;;;;;;;33.17;14.10;;;-2.10;1.00;;;;;;5117014;28;20415;-65
2021/01/31 08:00:17;;;;;;;23.55;13.25;;;-2.00;99.90;;;;;;5117253;28;20622;-65
2021/01/31 08:02:46;;;;;;;19.23;11.88;;;-1.90;1.00;;;;;;5116719;28;20205;-65
2021/01/31 08:05:46;;;;;;;24.73;12.40;;;-2.00;1.00;;;;;;5116858;28;20182;-65
2021/01/31 08:08:51;;;;;;;85.93;35.80;;;-1.80;1.00;;;;;;5116702;28;20211;-65
2021/01/31 08:11:17;;;;;;;28.95;13.60;;;-1.50;99.90;;;;;;5116850;27;20171;-65
2021/01/31 08:13:48;;;;;;;19.73;11.33;;;-1.40;99.90;;;;;;5116428;28;20179;-66
2021/01/31 08:16:41;;;;;;;24.05;12.38;;;-1.30;57.10;;;;;;5117211;28;20202;-66
2021/01/31 08:19:12;;;;;;;19.83;11.77;;;-1.10;1.00;;;;;;5115788;28;20640;-65
2021/01/31 08:21:57;;;;;;;92.10;37.83;;;-0.90;1.00;;;;;;5115741;28;20179;-64
2021/01/31 08:24:59;;;;;;;32.47;17.35;;;-0.80;1.00;;;;;;5116421;28;20264;-64
2021/01/31 08:27:37;;;;;;;30.67;17.02;;;-0.60;1.00;;;;;;5116154;28;20171;-63
2021/01/31 08:30:27;;;;;;;47.33;23.17;;;-0.40;70.20;;;;;;5116664;27;20190;-63
2021/01/31 08:32:59;;;;;;;19.60;10.35;;;-0.20;25.70;;;;;;5116647;28;20176;-66
2021/01/31 08:35:37;;;;;;;43.78;19.23;;;-0.10;99.90;;;;;;5116249;28;20183;-64
2021/01/31 08:38:24;;;;;;;14.82;8.20;;;0.00;1.00;;;;;;5115494;28;20211;-64
2021/01/31 08:40:58;;;;;;;14.55;7.65;;;-0.10;1.00;;;;;;5114639;28;20175;-64
2021/01/31 08:43:35;;;;;;;10.15;5.90;;;0.10;1.00;;;;;;5112961;28;20197;-63
2021/01/31 08:46:06;;;;;;;7.65;5.68;;;0.20;1.00;;;;;;5109243;28;20546;-64
2021/01/31 08:48:32;;;;;;;11.70;5.82;;;0.20;1.00;;;;;;5100853;28;20198;-65
2021/01/31 08:51:28;;;;;;;11.20;6.13;;;0.50;28.20;;;;;;5096040;28;20504;-65
2021/01/31 08:54:07;;;;;;;12.57;6.00;;;0.50;1.00;;;;;;5109414;28;20209;-64
2021/01/31 08:56:45;;;;;;;10.98;6.85;;;0.80;1.00;;;;;;5116180;28;20249;-60
2021/01/31 08:59:23;;;;;;;8.98;6.22;;;0.80;99.90;;;;;;5095749;28;20211;-60
2021/01/31 09:02:09;;;;;;;11.00;6.78;;;0.80;1.00;;;;;;5094573;28;20288;-63
2021/01/31 09:04:56;;;;;;;9.38;5.25;;;1.00;7.70;;;;;;5095199;28;20194;-62
2021/01/31 09:07:31;;;;;;;10.20;5.30;;;1.10;99.90;;;;;;5095583;28;20571;-63
2021/01/31 09:10:24;;;;;;;9.30;6.10;;;0.70;99.90;;;;;;5094294;28;20186;-62
2021/01/31 09:12:49;;;;;;;9.98;6.68;;;0.70;99.90;;;;;;5087739;28;20188;-63
2021/01/31 09:15:23;;;;;;;13.03;7.10;;;0.30;1.00;;;;;;5107677;28;20191;-63
2021/01/31 09:17:49;;;;;;;33.55;18.30;;;0.00;9.60;;;;;;5115400;28;20211;-61
2021/01/31 09:20:25;;;;;;;19.87;10.27;;;-0.20;99.90;;;;;;5115177;28;20474;-62
2021/01/31 09:22:53;;;;;;;14.50;9.13;;;-0.10;1.00;;;;;;5115421;28;20741;-63
2021/01/31 09:25:22;;;;;;;20.73;11.52;;;0.00;1.00;;;;;;5111309;28;20582;-63
2021/01/31 09:28:08;;;;;;;13.18;7.90;;;0.40;1.00;;;;;;5115921;28;20635;-63
2021/01/31 09:30:35;;;;;;;14.32;8.43;;;0.70;99.90;;;;;;5115863;28;20221;-62
2021/01/31 09:33:12;;;;;;;12.55;7.07;;;0.80;1.00;;;;;;5115505;28;20195;-62
2021/01/31 09:35:39;;;;;;;10.52;6.70;;;0.60;99.90;;;;;;5114612;28;20635;-66
2021/01/31 09:38:25;;;;;;;10.02;5.85;;;0.50;1.00;;;;;;5114728;28;20219;-67
2021/01/31 09:40:55;;;;;;;13.13;6.63;;;0.50;1.00;;;;;;5116055;28;20175;-60
2021/01/31 09:43:27;;;;;;;9.93;6.00;;;0.80;1.00;;;;;;5115246;28;20176;-63
2021/01/31 09:45:56;;;;;;;9.68;5.97;;;0.80;99.90;;;;;;5115410;28;20634;-61
2021/01/31 09:48:25;;;;;;;10.45;6.45;;;1.20;99.90;;;;;;5115676;28;20632;-61
2021/01/31 09:50:53;;;;;;;7.55;5.95;;;1.70;99.90;;;;;;5115738;28;20202;-62
2021/01/31 09:53:31;;;;;;;9.27;5.75;;;2.40;24.30;;;;;;5115458;28;20171;-63
2021/01/31 09:55:57;;;;;;;10.95;6.68;;;2.90;1.00;;;;;;5115878;28;20179;-64
2021/01/31 09:58:45;;;;;;;12.55;7.90;;;3.50;1.00;;;;;;5099785;28;20200;-63
2021/01/31 10:01:22;;;;;;;12.00;6.60;;;3.50;1.00;;;;;;5095549;28;20180;-60
2021/01/31 10:03:54;;;;;;;11.20;6.43;;;3.30;94.60;;;;;;5094077;28;20211;-61
2021/01/31 10:06:20;;;;;;;10.15;6.05;;;3.70;99.90;;;;;;5095203;28;20298;-66
2021/01/31 10:09:04;;;;;;;8.97;6.17;;;3.80;26.60;;;;;;5094693;28;20604;-61
2021/01/31 10:11:38;;;;;;;8.85;4.97;;;3.60;1.00;;;;;;5093575;28;20900;-60
2021/01/31 10:14:07;;;;;;;8.27;5.18;;;3.50;1.00;;;;;;5094608;28;20608;-61
2021/01/31 10:16:36;;;;;;;8.15;5.95;;;3.60;1.00;;;;;;5094684;28;20340;-59
2021/01/31 10:19:22;;;;;;;8.63;4.70;;;3.50;1.00;;;;;;5094754;28;20200;-61
2021/01/31 10:21:57;;;;;;;9.07;6.85;;;3.30;1.00;;;;;;5094696;28;20180;-64
2021/01/31 10:24:30;;;;;;;8.57;5.60;;;3.30;1.00;;;;;;5093137;28;20643;-64
2021/01/31 10:27:09;;;;;;;8.18;4.80;;;2.60;1.00;;;;;;5094668;28;20172;-64
2021/01/31 10:29:35;;;;;;;8.30;5.38;;;2.10;1.00;;;;;;5102125;27;20253;-65
2021/01/31 10:32:19;;;;;;;11.00;5.53;;;2.20;57.10;;;;;;5123659;27;20270;-67
2021/01/31 10:34:45;;;;;;;6.05;3.95;;;2.40;1.00;;;;;;5114517;28;20179;-66
2021/01/31 10:37:28;;;;;;;6.50;4.70;;;2.20;1.00;;;;;;5114697;28;20187;-66
2021/01/31 10:39:54;;;;;;;7.03;5.03;;;2.10;1.00;;;;;;5114763;28;20262;-62
2021/01/31 10:42:20;;;;;;;6.57;4.40;;;2.50;1.00;;;;;;5114748;28;20258;-61
2021/01/31 10:44:46;;;;;;;6.88;4.85;;;2.80;1.00;;;;;;5114705;28;20619;-61
2021/01/31 10:47:11;;;;;;;6.73;5.10;;;2.90;1.00;;;;;;5114768;28;20235;-59
2021/01/31 10:49:37;;;;;;;8.23;4.83;;;3.10;99.90;;;;;;5114264;28;20660;-59
2021/01/31 10:52:03;;;;;;;4.03;3.13;;;3.50;99.90;;;;;;5115064;28;20224;-62
2021/01/31 10:54:29;;;;;;;5.47;4.47;;;3.60;99.90;;;;;;5114567;28;20171;-62
2021/01/31 10:56:55;;;;;;;6.25;4.15;;;3.60;99.90;;;;;;5114723;28;20471;-62
2021/01/31 10:59:20;;;;;;;7.57;4.87;;;3.40;99.90;;;;;;5114172;28;20199;-61
2021/01/31 11:02:37;;;;;;;5.47;4.43;;;3.30;99.90;;;;;;5114343;28;20186;-62
2021/01/31 11:05:48;;;;;;;6.22;4.72;;;3.20;99.90;;;;;;5113764;28;20191;-61
2021/01/31 11:21:53;;;;;;;5.15;4.20;;;2.20;1.00;;;;;;5114134;28;20687;-64
2021/01/31 11:24:19;;;;;;;7.53;4.28;;;2.30;1.00;;;;;;5114238;28;20183;-65
2021/01/31 11:26:45;;;;;;;4.75;3.90;;;2.60;1.00;;;;;;5114565;28;20171;-66
2021/01/31 11:29:11;;;;;;;7.00;3.87;;;2.50;99.90;;;;;;5114184;28;20183;-66
2021/01/31 11:31:36;;;;;;;5.90;4.53;;;2.50;99.90;;;;;;5113749;28;20188;-61
2021/01/31 11:34:02;;;;;;;6.83;4.73;;;2.50;99.90;;;;;;5113911;28;20483;-60
2021/01/31 11:36:30;;;;;;;7.43;4.77;;;2.30;99.90;;;;;;5114073;28;20283;-62
2021/01/31 11:39:04;;;;;;;4.82;4.10;;;2.40;99.90;;;;;;5114472;28;20810;-60
2021/01/31 11:41:30;;;;;;;4.20;3.80;;;2.70;99.90;;;;;;5114920;28;20305;-60
2021/01/31 11:43:57;;;;;;;6.55;4.30;;;2.80;99.90;;;;;;5114511;28;20534;-60
2021/01/31 11:46:23;;;;;;;6.30;3.75;;;2.90;99.90;;;;;;5114305;28;20201;-62
2021/01/31 11:48:48;;;;;;;6.00;4.07;;;2.70;99.90;;;;;;5113946;28;20179;-60
2021/01/31 11:51:14;;;;;;;6.30;4.63;;;2.90;99.90;;;;;;5113059;28;20522;-60
2021/01/31 11:53:40;;;;;;;8.43;5.60;;;2.80;99.90;;;;;;5114016;28;20504;-61
2021/01/31 11:56:05;;;;;;;5.97;3.90;;;2.80;99.90;;;;;;5114161;28;20814;-62
2021/01/31 11:58:31;;;;;;;4.10;3.27;;;2.70;99.90;;;;;;5114085;28;20654;-61
2021/01/31 12:00:56;;;;;;;5.43;3.03;;;2.60;99.90;;;;;;5114752;28;20623;-61
2021/01/31 12:03:22;;;;;;;4.10;3.20;;;2.60;99.90;;;;;;5117599;28;20577;-62
2021/01/31 12:05:48;;;;;;;5.43;3.20;;;2.90;99.90;;;;;;5117840;28;20245;-62
2021/01/31 12:08:13;;;;;;;4.17;3.00;;;2.90;99.90;;;;;;5117619;28;20582;-62
2021/01/31 12:10:39;;;;;;;10.27;3.80;;;3.00;99.90;;;;;;5117655;28;20484;-62
2021/01/31 12:13:04;;;;;;;5.20;3.00;;;3.20;99.90;;;;;;5117468;28;20218;-62
2021/01/31 12:15:30;;;;;;;4.03;2.60;;;3.10;99.90;;;;;;5117195;28;20239;-62
2021/01/31 12:17:56;;;;;;;4.13;3.00;;;3.00;99.90;;;;;;5117261;28;20214;-63
2021/01/31 12:20:21;;;;;;;7.03;3.73;;;3.10;99.90;;;;;;5117669;28;20183;-58
2021/01/31 12:22:47;;;;;;;4.57;2.83;;;3.10;99.90;;;;;;5117212;28;20175;-64
2021/01/31 12:25:14;;;;;;;3.40;2.83;;;3.30;99.90;;;;;;5115856;28;20535;-62
2021/01/31 12:27:43;;;;;;;5.72;3.30;;;3.40;92.10;;;;;;5116274;28;20616;-62
2021/01/31 12:30:10;;;;;;;4.03;2.83;;;3.70;67.00;;;;;;5116708;28;20185;-63
2021/01/31 12:32:44;;;;;;;4.30;2.90;;;3.60;45.50;;;;;;5117107;28;20592;-59
2021/01/31 12:35:10;;;;;;;4.32;3.17;;;3.40;44.60;;;;;;5114815;28;20207;-63
2021/01/31 12:37:35;;;;;;;3.53;2.23;;;3.60;73.50;;;;;;5117184;28;20219;-62
2021/01/31 12:40:02;;;;;;;4.10;3.03;;;3.50;69.70;;;;;;5117107;28;20183;-61
2021/01/31 12:42:28;;;;;;;4.43;3.10;;;3.50;12.20;;;;;;5116759;28;20176;-62
2021/01/31 12:44:53;;;;;;;4.53;3.90;;;3.50;89.90;;;;;;5115563;28;20231;-65
2021/01/31 12:47:19;;;;;;;7.00;5.47;;;3.50;99.90;;;;;;5116960;28;20172;-64
2021/01/31 12:49:45;;;;;;;4.83;3.80;;;3.70;99.90;;;;;;5116667;28;20506;-61
2021/01/31 12:52:11;;;;;;;5.65;3.45;;;4.00;85.00;;;;;;5115589;28;20280;-61
2021/01/31 12:54:37;;;;;;;5.03;3.45;;;4.60;43.60;;;;;;5115069;28;20653;-61
2021/01/31 12:57:03;;;;;;;4.50;4.05;;;5.00;1.00;;;;;;5115158;28;20634;-63
2021/01/31 12:59:28;;;;;;;6.47;4.97;;;5.20;1.00;;;;;;5116287;28;20203;-63
2021/01/31 13:01:54;;;;;;;7.63;4.17;;;5.50;1.00;;;;;;5116332;28;20421;-63
2021/01/31 13:04:20;;;;;;;6.73;4.87;;;5.70;1.00;;;;;;5115737;28;20309;-64
2021/01/31 13:06:45;;;;;;;6.00;3.40;;;5.70;1.00;;;;;;5116254;28;20175;-63
2021/01/31 13:09:11;;;;;;;5.23;2.90;;;5.50;1.00;;;;;;5115043;28;20183;-63
2021/01/31 13:11:37;;;;;;;3.60;3.10;;;5.30;1.00;;;;;;5114924;28;20199;-66
2021/01/31 13:14:03;;;;;;;9.82;3.20;;;4.80;1.00;;;;;;5115908;28;20197;-62
2021/01/31 13:16:29;;;;;;;4.65;3.85;;;4.90;1.00;;;;;;5115957;28;20622;-63
2021/01/31 13:18:54;;;;;;;4.83;3.67;;;4.60;1.00;;;;;;5115884;28;20294;-63
2021/01/31 13:21:20;;;;;;;5.67;3.53;;;4.30;1.00;;;;;;5115963;28;20179;-65
2021/01/31 13:23:46;;;;;;;5.70;4.73;;;4.30;1.00;;;;;;5116364;28;20237;-64